Time;durP1;ratioP1;P1;durP2;ratioP2;P2;SDS_P1;SDS_P2;PMS_P1;PMS_P2;Temp;Humidity;BMP_temperature;BMP_pressure;BME280_temperature;BME280_humidity;BME280_pressure;Samples;Min_cycle;Max_cycle;Signal;HPM_P1;HPM_P2
2022/02/24 00:01:49;;;;;;;8.50;1.73;;;;;;;;;;5066225;28;20063;-57
2022/02/24 00:04:15;;;;;;;6.63;1.73;;;;;;;;;;5060565;28;20409;-60
2022/02/24 00:06:42;;;;;;;7.97;1.98;;;;;;;;;;5066634;28;20060;-61
2022/02/24 00:09:08;;;;;;;7.57;1.50;;;;;;;;;;5046404;28;20060;-61
2022/02/24 00:11:35;;;;;;;10.27;1.77;;;;;;;;;;5046870;28;20137;-57
2022/02/24 00:14:01;;;;;;;2.72;1.10;;;;;;;;;;5047440;28;20053;-60
2022/02/24 00:16:30;;;;;;;9.02;1.38;;;;;;;;;;5058974;28;20157;-61
2022/02/24 00:18:58;;;;;;;6.43;1.77;;;;;;;;;;5066325;28;20060;-55
2022/02/24 00:21:24;;;;;;;8.90;2.27;;;;;;;;;;5061835;28;20059;-57
2022/02/24 00:23:51;;;;;;;9.75;1.90;;;;;;;;;;5068022;28;20052;-60
2022/02/24 00:26:18;;;;;;;14.68;2.30;;;;;;;;;;5059502;28;20080;-60
2022/02/24 00:28:44;;;;;;;10.70;1.88;;;;;;;;;;5064603;28;20460;-57
2022/02/24 00:31:11;;;;;;;10.02;2.22;;;;;;;;;;5059699;28;20059;-60
2022/02/24 00:33:38;;;;;;;13.85;2.60;;;;;;;;;;5066208;28;20060;-56
2022/02/24 00:36:07;;;;;;;11.63;1.83;;;;;;;;;;5060020;28;20052;-61
2022/02/24 00:38:33;;;;;;;7.05;1.52;;;;;;;;;;5065508;28;20414;-58
2022/02/24 00:41:00;;;;;;;4.80;1.67;;;;;;;;;;5059536;28;20049;-56
2022/02/24 00:43:26;;;;;;;12.85;2.33;;;;;;;;;;5065864;28;20055;-58
2022/02/24 00:45:53;;;;;;;15.18;2.33;;;;;;;;;;5059902;28;20049;-57
2022/02/24 00:48:19;;;;;;;5.60;1.65;;;;;;;;;;5065253;28;20056;-57
2022/02/24 00:50:46;;;;;;;11.02;2.20;;;;;;;;;;5060081;28;20148;-58
2022/02/24 00:53:14;;;;;;;7.10;1.67;;;;;;;;;;5066122;28;20140;-59
2022/02/24 00:55:40;;;;;;;11.50;1.73;;;;;;;;;;5070229;28;20139;-60
2022/02/24 00:58:07;;;;;;;12.20;2.00;;;;;;;;;;5062984;28;20134;-57
2022/02/24 01:00:36;;;;;;;6.97;1.50;;;;;;;;;;5069860;28;20141;-58
2022/02/24 01:03:03;;;;;;;12.07;2.05;;;;;;;;;;5063904;28;20052;-59
2022/02/24 01:05:32;;;;;;;10.55;1.85;;;;;;;;;;5069729;28;20078;-59
2022/02/24 01:07:59;;;;;;;9.40;2.33;;;;;;;;;;5063213;28;20058;-58
2022/02/24 01:10:27;;;;;;;10.10;1.85;;;;;;;;;;5069017;28;20076;-58
2022/02/24 01:12:53;;;;;;;7.05;1.80;;;;;;;;;;5063344;28;20060;-57
2022/02/24 01:15:20;;;;;;;11.10;1.98;;;;;;;;;;5069386;28;20147;-58
2022/02/24 01:17:46;;;;;;;12.90;2.17;;;;;;;;;;5063655;28;20058;-57
2022/02/24 01:20:12;;;;;;;8.43;2.08;;;;;;;;;;5069448;28;20144;-60
2022/02/24 01:22:41;;;;;;;10.43;2.40;;;;;;;;;;5063861;28;20052;-61
2022/02/24 01:25:07;;;;;;;;;;;;;;;;;;5069631;28;20060;-57
2022/02/24 01:27:37;;;;;;;9.60;2.15;;;;;;;;;;5063188;28;19932;-58
2022/02/24 01:30:03;;;;;;;8.48;2.30;;;;;;;;;;5068657;28;20049;-60
2022/02/24 01:32:30;;;;;;;6.45;1.98;;;;;;;;;;5062808;28;20076;-58
2022/02/24 01:35:00;;;;;;;11.77;2.70;;;;;;;;;;5068788;28;20052;-62
2022/02/24 01:37:27;;;;;;;9.55;2.25;;;;;;;;;;5067163;28;20104;-61
2022/02/24 01:39:53;;;;;;;8.18;2.20;;;;;;;;;;5066063;28;20082;-60
2022/02/24 01:42:20;;;;;;;10.02;2.17;;;;;;;;;;5069350;28;20121;-58
2022/02/24 01:44:48;;;;;;;8.65;1.98;;;;;;;;;;5064220;28;20140;-59
2022/02/24 01:47:15;;;;;;;13.50;3.20;;;;;;;;;;5069597;28;20060;-58
2022/02/24 01:49:42;;;;;;;11.75;2.50;;;;;;;;;;5063605;28;20099;-61
2022/02/24 01:52:10;;;;;;;8.63;2.25;;;;;;;;;;5066043;28;20056;-62
2022/02/24 01:54:37;;;;;;;8.48;2.00;;;;;;;;;;5057709;28;20509;-61
2022/02/24 01:57:04;;;;;;;12.23;2.00;;;;;;;;;;5053697;28;20129;-60
2022/02/24 01:59:31;;;;;;;13.23;2.33;;;;;;;;;;5053054;28;20080;-60
2022/02/24 02:01:59;;;;;;;11.48;2.28;;;;;;;;;;5068374;28;20111;-61
2022/02/24 02:04:25;;;;;;;4.10;1.20;;;;;;;;;;5063384;28;20079;-57
2022/02/24 02:06:53;;;;;;;8.55;2.03;;;;;;;;;;5067770;28;20080;-58
2022/02/24 02:09:20;;;;;;;11.43;2.13;;;;;;;;;;5062901;28;20052;-60
2022/02/24 02:11:47;;;;;;;7.38;2.22;;;;;;;;;;5068219;28;20080;-59
2022/02/24 02:14:14;;;;;;;13.88;2.58;;;;;;;;;;5062735;28;20507;-58
2022/02/24 02:16:42;;;;;;;14.35;2.65;;;;;;;;;;5068172;28;20048;-58
2022/02/24 02:19:10;;;;;;;8.10;2.50;;;;;;;;;;5062691;28;20106;-60
2022/02/24 02:21:38;;;;;;;12.00;2.10;;;;;;;;;;5067859;28;20474;-57
2022/02/24 02:24:05;;;;;;;10.07;2.00;;;;;;;;;;5069076;28;20068;-55
2022/02/24 02:26:33;;;;;;;10.55;2.40;;;;;;;;;;5039250;28;20392;-59
2022/02/24 02:29:00;;;;;;;6.22;1.90;;;;;;;;;;5047212;28;20132;-58
2022/02/24 02:31:27;;;;;;;8.77;2.08;;;;;;;;;;5060250;28;20044;-54
2022/02/24 02:34:00;;;;;;;7.05;1.60;;;;;;;;;;5067424;28;20098;-57
2022/02/24 02:36:26;;;;;;;9.88;2.30;;;;;;;;;;5061636;28;20044;-58
2022/02/24 02:38:54;;;;;;;10.85;1.88;;;;;;;;;;5067826;28;20132;-58
2022/02/24 02:41:21;;;;;;;12.50;1.70;;;;;;;;;;5053547;28;20060;-57
2022/02/24 02:43:48;;;;;;;15.35;2.47;;;;;;;;;;5067735;28;20056;-57
2022/02/24 02:46:15;;;;;;;8.60;2.08;;;;;;;;;;5062177;28;20083;-58
2022/02/24 02:48:41;;;;;;;6.95;1.75;;;;;;;;;;5067437;28;20367;-57
2022/02/24 02:51:08;;;;;;;15.55;2.05;;;;;;;;;;5062293;28;20099;-60
2022/02/24 02:53:34;;;;;;;9.93;1.67;;;;;;;;;;5067983;28;20059;-62
2022/02/24 02:56:02;;;;;;;6.45;1.80;;;;;;;;;;5060764;28;20441;-57
2022/02/24 02:58:29;;;;;;;11.13;1.90;;;;;;;;;;5067527;28;20112;-59
2022/02/24 03:00:56;;;;;;;9.30;1.58;;;;;;;;;;5058512;28;20143;-57
2022/02/24 03:03:24;;;;;;;11.95;1.90;;;;;;;;;;5067072;28;20084;-54
2022/02/24 03:05:51;;;;;;;;;;;;;;;;;;5067193;28;20517;-59
2022/02/24 03:08:17;;;;;;;8.80;1.77;;;;;;;;;;5062776;28;19973;-58
2022/02/24 03:10:44;;;;;;;9.48;1.70;;;;;;;;;;5067646;28;20067;-61
2022/02/24 03:13:12;;;;;;;8.73;1.60;;;;;;;;;;5061275;28;20143;-58
2022/02/24 03:15:39;;;;;;;9.63;1.90;;;;;;;;;;5067741;28;20052;-60
2022/02/24 03:18:05;;;;;;;13.55;2.30;;;;;;;;;;5060915;28;20056;-61
2022/02/24 03:20:32;;;;;;;4.65;1.42;;;;;;;;;;5068232;28;20064;-58
2022/02/24 03:23:00;;;;;;;5.03;1.48;;;;;;;;;;5062897;28;20275;-62
2022/02/24 03:25:26;;;;;;;8.20;1.90;;;;;;;;;;5066386;28;20062;-59
2022/02/24 03:27:53;;;;;;;10.43;1.67;;;;;;;;;;5060517;28;20557;-57
2022/02/24 03:30:21;;;;;;;9.05;1.70;;;;;;;;;;5065698;28;20155;-58
2022/02/24 03:32:49;;;;;;;10.63;1.75;;;;;;;;;;5052746;28;20153;-57
2022/02/24 03:35:16;;;;;;;8.35;1.80;;;;;;;;;;5066877;28;20110;-57
2022/02/24 03:37:43;;;;;;;13.18;1.65;;;;;;;;;;5060808;28;20080;-58
2022/02/24 03:40:10;;;;;;;9.88;2.05;;;;;;;;;;5066215;28;20056;-59
2022/02/24 03:42:37;;;;;;;9.90;1.58;;;;;;;;;;5061075;28;21960;-57
2022/02/24 03:45:03;;;;;;;10.07;1.48;;;;;;;;;;5068546;28;20052;-53
2022/02/24 03:47:32;;;;;;;10.35;1.55;;;;;;;;;;5066150;28;20117;-58
2022/02/24 03:49:58;;;;;;;8.27;1.67;;;;;;;;;;5042535;28;20578;-56
2022/02/24 03:52:25;;;;;;;5.47;1.40;;;;;;;;;;5053928;28;20056;-55
2022/02/24 03:54:51;;;;;;;7.50;1.50;;;;;;;;;;5060536;28;20157;-57
2022/02/24 03:57:19;;;;;;;9.90;1.58;;;;;;;;;;5065867;28;20052;-59
2022/02/24 03:59:45;;;;;;;15.30;1.80;;;;;;;;;;5060595;28;20075;-56
2022/02/24 04:02:12;;;;;;;5.15;1.40;;;;;;;;;;5066009;28;20105;-60
2022/02/24 04:04:41;;;;;;;10.27;1.70;;;;;;;;;;5060204;28;20044;-58
2022/02/24 04:07:07;;;;;;;;;;;;;;;;;;5065971;28;20072;-58
2022/02/24 04:09:35;;;;;;;4.47;1.38;;;;;;;;;;5060557;28;20024;-58
2022/02/24 04:12:01;;;;;;;5.38;1.25;;;;;;;;;;5067966;28;20493;-57
2022/02/24 04:14:28;;;;;;;7.63;1.40;;;;;;;;;;5050490;28;20048;-58
2022/02/24 04:16:54;;;;;;;12.05;1.80;;;;;;;;;;5045902;28;20072;-57
2022/02/24 04:19:21;;;;;;;7.53;1.70;;;;;;;;;;5045868;28;20052;-56
2022/02/24 04:21:49;;;;;;;8.95;1.67;;;;;;;;;;5066761;28;20048;-58
2022/02/24 04:24:15;;;;;;;8.07;1.50;;;;;;;;;;5060124;28;20625;-57
2022/02/24 04:26:42;;;;;;;7.88;1.50;;;;;;;;;;5065055;28;20063;-54
2022/02/24 04:29:08;;;;;;;6.40;1.40;;;;;;;;;;5061791;28;20072;-61
2022/02/24 04:31:35;;;;;;;8.57;1.55;;;;;;;;;;5064501;28;20055;-55
2022/02/24 04:34:01;;;;;;;12.20;1.75;;;;;;;;;;5065612;28;20131;-61
2022/02/24 04:36:28;;;;;;;5.75;1.50;;;;;;;;;;5059998;28;20052;-58
2022/02/24 04:38:57;;;;;;;12.07;2.03;;;;;;;;;;5066016;28;20114;-55
2022/02/24 04:41:23;;;;;;;11.70;1.70;;;;;;;;;;5059931;28;20044;-58
2022/02/24 04:43:50;;;;;;;10.88;2.63;;;;;;;;;;5066210;28;20052;-58
2022/02/24 04:46:16;;;;;;;9.05;1.83;;;;;;;;;;5059973;28;20113;-57
2022/02/24 04:48:43;;;;;;;8.52;2.10;;;;;;;;;;5066288;28;20056;-58
2022/02/24 04:51:09;;;;;;;9.18;1.85;;;;;;;;;;5060584;28;20101;-58
2022/02/24 04:53:36;;;;;;;8.82;1.73;;;;;;;;;;5067656;28;20037;-59
2022/02/24 04:56:04;;;;;;;11.43;1.83;;;;;;;;;;5062087;28;20101;-61
2022/02/24 04:58:30;;;;;;;8.75;1.80;;;;;;;;;;5066510;28;20052;-57
2022/02/24 05:00:57;;;;;;;7.75;2.25;;;;;;;;;;5060347;28;20058;-58
2022/02/24 05:03:23;;;;;;;7.75;1.88;;;;;;;;;;5065815;28;20061;-59
2022/02/24 05:05:49;;;;;;;15.18;1.80;;;;;;;;;;5055119;28;20139;-54
2022/02/24 05:08:16;;;;;;;7.75;1.60;;;;;;;;;;5029156;28;20045;-58
2022/02/24 05:10:45;;;;;;;12.13;2.25;;;;;;;;;;5045604;28;20065;-57
2022/02/24 05:13:13;;;;;;;12.80;2.35;;;;;;;;;;5064190;28;20064;-59
2022/02/24 05:15:41;;;;;;;11.90;1.93;;;;;;;;;;5065539;28;20416;-55
2022/02/24 05:18:08;;;;;;;8.52;1.77;;;;;;;;;;5057446;28;20071;-57
2022/02/24 05:20:36;;;;;;;6.28;1.80;;;;;;;;;;5065802;28;20044;-56
2022/02/24 05:23:03;;;;;;;16.02;2.08;;;;;;;;;;5059371;28;20044;-59
2022/02/24 05:25:30;;;;;;;10.10;1.83;;;;;;;;;;5065334;28;20048;-58
2022/02/24 05:27:57;;;;;;;14.88;1.92;;;;;;;;;;5059827;28;20110;-57
2022/02/24 05:30:25;;;;;;;13.07;2.10;;;;;;;;;;5064838;28;20044;-59
2022/02/24 05:32:52;;;;;;;7.40;1.90;;;;;;;;;;5059467;28;20055;-57
2022/02/24 05:35:18;;;;;;;13.27;1.83;;;;;;;;;;5065216;28;20051;-57
2022/02/24 05:37:46;;;;;;;11.77;2.03;;;;;;;;;;5059305;28;22681;-58
2022/02/24 05:40:12;;;;;;;15.02;2.00;;;;;;;;;;5066745;28;20072;-58
2022/02/24 05:42:39;;;;;;;9.25;1.80;;;;;;;;;;5063241;28;20056;-58
2022/02/24 05:45:05;;;;;;;5.22;1.52;;;;;;;;;;5069105;28;20044;-61
2022/02/24 05:47:34;;;;;;;8.18;1.48;;;;;;;;;;5062259;28;20056;-58
2022/02/24 05:50:02;;;;;;;17.33;1.90;;;;;;;;;;5069638;28;20064;-55
2022/02/24 05:52:28;;;;;;;4.15;1.38;;;;;;;;;;5056879;28;20059;-58
2022/02/24 05:54:55;;;;;;;6.13;1.73;;;;;;;;;;5068721;28;20052;-60
2022/02/24 05:57:21;;;;;;;7.40;1.70;;;;;;;;;;5068661;28;20060;-57
2022/02/24 05:59:48;;;;;;;11.18;1.67;;;;;;;;;;5062498;28;20086;-61
2022/02/24 06:02:14;;;;;;;11.95;1.75;;;;;;;;;;5068215;28;20056;-60
2022/02/24 06:04:42;;;;;;;13.48;2.85;;;;;;;;;;5061911;28;20135;-61
2022/02/24 06:07:10;;;;;;;7.30;2.65;;;;;;;;;;5063660;28;20110;-61
2022/02/24 06:09:36;;;;;;;15.57;2.50;;;;;;;;;;5064221;28;20052;-56
2022/02/24 06:12:04;;;;;;;7.60;1.98;;;;;;;;;;5070439;28;20087;-57
2022/02/24 06:14:30;;;;;;;7.88;1.85;;;;;;;;;;5062053;28;20218;-55
2022/02/24 06:16:57;;;;;;;12.23;1.80;;;;;;;;;;5068044;28;20060;-60
2022/02/24 06:19:26;;;;;;;12.25;1.95;;;;;;;;;;5063517;28;20060;-56
2022/02/24 06:21:54;;;;;;;9.90;2.00;;;;;;;;;;5068400;28;20109;-57
2022/02/24 06:24:21;;;;;;;15.13;2.42;;;;;;;;;;5064747;28;20048;-62
2022/02/24 06:26:48;;;;;;;11.95;2.08;;;;;;;;;;5070932;28;20143;-61
2022/02/24 06:29:14;;;;;;;10.52;1.88;;;;;;;;;;5061706;28;20048;-57
2022/02/24 06:31:41;;;;;;;13.30;1.90;;;;;;;;;;5067495;28;20048;-59
2022/02/24 06:34:07;;;;;;;8.60;2.58;;;;;;;;;;5064577;28;20056;-58
2022/02/24 06:36:34;;;;;;;10.60;3.67;;;;;;;;;;5069312;28;20097;-61
2022/02/24 06:39:02;;;;;;;12.23;2.70;;;;;;;;;;5066560;28;20436;-57
2022/02/24 06:41:28;;;;;;;13.43;2.25;;;;;;;;;;5061903;28;20054;-56
2022/02/24 06:43:56;;;;;;;11.05;1.77;;;;;;;;;;5068795;28;20153;-57
2022/02/24 06:46:23;;;;;;;12.07;1.90;;;;;;;;;;5063416;28;20040;-59
2022/02/24 06:48:50;;;;;;;9.15;1.88;;;;;;;;;;5066955;28;20056;-59
2022/02/24 06:51:16;;;;;;;10.13;2.05;;;;;;;;;;5061560;28;20052;-56
2022/02/24 06:53:43;;;;;;;4.22;1.42;;;;;;;;;;5068587;28;20124;-57
2022/02/24 06:56:11;;;;;;;8.82;1.63;;;;;;;;;;5069384;28;20052;-60
2022/02/24 06:58:38;;;;;;;13.88;1.55;;;;;;;;;;5086935;28;20052;-57
2022/02/24 07:01:04;;;;;;;11.13;2.20;;;;;;;;;;5072230;28;20072;-58
2022/02/24 07:03:31;;;;;;;15.48;1.90;;;;;;;;;;5065264;28;20048;-59
2022/02/24 07:05:57;;;;;;;8.23;1.75;;;;;;;;;;5061326;28;20044;-62
2022/02/24 07:08:25;;;;;;;13.10;2.22;;;;;;;;;;5065621;28;20048;-61
2022/02/24 07:10:51;;;;;;;6.85;1.85;;;;;;;;;;5062464;28;20450;-59
2022/02/24 07:13:19;;;;;;;9.98;2.20;;;;;;;;;;5069174;28;20052;-57
2022/02/24 07:15:46;;;;;;;12.03;2.47;;;;;;;;;;5063923;28;20052;-60
2022/02/24 07:18:12;;;;;;;12.02;2.47;;;;;;;;;;5069302;28;20307;-57
2022/02/24 07:20:39;;;;;;;8.15;1.58;;;;;;;;;;5066702;28;20044;-57
2022/02/24 07:23:05;;;;;;;7.28;1.50;;;;;;;;;;5063355;28;20087;-56
2022/02/24 07:25:32;;;;;;;10.60;1.70;;;;;;;;;;5066520;28;20053;-57
2022/02/24 07:27:58;;;;;;;14.07;1.83;;;;;;;;;;5058931;28;20526;-57
2022/02/24 07:30:26;;;;;;;9.95;1.33;;;;;;;;;;5067810;28;20045;-57
2022/02/24 07:32:53;;;;;;;6.77;1.67;;;;;;;;;;5062019;28;20048;-57
2022/02/24 07:35:19;;;;;;;13.98;1.98;;;;;;;;;;5068452;28;20052;-58
2022/02/24 07:37:47;;;;;;;10.00;1.60;;;;;;;;;;5059935;28;20052;-57
2022/02/24 07:40:14;;;;;;;9.52;1.85;;;;;;;;;;5067764;28;20048;-55
2022/02/24 07:42:46;;;;;;;8.55;1.70;;;;;;;;;;5061286;28;20048;-57
2022/02/24 07:45:13;;;;;;;9.60;1.40;;;;;;;;;;5067368;28;20059;-56
2022/02/24 07:47:41;;;;;;;7.93;1.45;;;;;;;;;;5063122;28;20143;-57
2022/02/24 07:50:13;;;;;;;8.03;1.57;;;;;;;;;;5069301;28;20078;-62
2022/02/24 07:52:39;;;;;;;10.00;2.00;;;;;;;;;;5060501;28;20356;-61
2022/02/24 07:55:07;;;;;;;6.93;1.60;;;;;;;;;;5067872;28;20044;-62
2022/02/24 07:57:33;;;;;;;14.98;1.80;;;;;;;;;;5060312;28;20048;-61
2022/02/24 08:00:00;;;;;;;7.95;1.27;;;;;;;;;;5067799;28;20110;-58
2022/02/24 08:02:26;;;;;;;10.20;1.25;;;;;;;;;;5061634;28;20049;-56
2022/02/24 08:04:54;;;;;;;9.35;1.40;;;;;;;;;;5081700;28;20048;-58
2022/02/24 08:07:21;;;;;;;9.37;1.20;;;;;;;;;;5066198;28;20048;-58
2022/02/24 08:09:47;;;;;;;7.80;1.27;;;;;;;;;;5061276;28;20302;-58
2022/02/24 08:14:58;;;;;;;8.85;1.42;;;;;;;;;;5059714;28;20052;-60
2022/02/24 08:17:26;;;;;;;3.10;1.20;;;;;;;;;;5065840;28;20060;-62
2022/02/24 08:19:52;;;;;;;4.18;1.20;;;;;;;;;;5059273;28;20065;-61
2022/02/24 08:22:21;;;;;;;7.00;1.33;;;;;;;;;;5067831;28;20057;-62
2022/02/24 08:24:48;;;;;;;5.80;1.88;;;;;;;;;;5059551;28;20051;-61
2022/02/24 08:27:16;;;;;;;6.00;1.20;;;;;;;;;;5068277;28;20129;-61
2022/02/24 08:29:42;;;;;;;10.00;1.70;;;;;;;;;;5060943;28;20062;-61
2022/02/24 08:32:09;;;;;;;7.70;1.20;;;;;;;;;;5064598;28;20057;-57
2022/02/24 08:34:35;;;;;;;7.40;1.38;;;;;;;;;;5059794;28;20063;-58
2022/02/24 08:37:02;;;;;;;8.52;1.70;;;;;;;;;;5066141;28;20105;-58
2022/02/24 08:39:30;;;;;;;5.22;1.30;;;;;;;;;;5058442;28;20133;-57
2022/02/24 08:41:57;;;;;;;4.35;1.20;;;;;;;;;;5064167;28;20057;-59
2022/02/24 08:44:23;;;;;;;5.10;1.13;;;;;;;;;;5061124;28;20048;-59
2022/02/24 08:46:51;;;;;;;5.90;1.20;;;;;;;;;;5067987;28;20068;-61
2022/02/24 08:49:18;;;;;;;5.53;1.17;;;;;;;;;;5062705;28;20056;-59
2022/02/24 08:51:44;;;;;;;7.93;1.63;;;;;;;;;;5064134;28;20110;-56
2022/02/24 08:54:11;;;;;;;8.88;1.45;;;;;;;;;;5066628;28;20145;-60
2022/02/24 08:56:39;;;;;;;9.02;1.67;;;;;;;;;;5059645;28;20054;-62
2022/02/24 08:59:06;;;;;;;5.97;1.77;;;;;;;;;;5066798;28;20079;-61
2022/02/24 09:01:32;;;;;;;6.20;1.75;;;;;;;;;;5062838;28;20110;-58
2022/02/24 09:03:59;;;;;;;15.57;2.00;;;;;;;;;;5067594;28;20047;-58
2022/02/24 09:06:25;;;;;;;8.73;1.40;;;;;;;;;;5062139;28;20106;-61
2022/02/24 09:08:52;;;;;;;6.30;1.45;;;;;;;;;;5068165;28;20044;-61
2022/02/24 09:11:21;;;;;;;11.32;1.85;;;;;;;;;;5058176;28;20056;-60
2022/02/24 09:13:49;;;;;;;6.43;1.30;;;;;;;;;;5063395;28;20048;-62
2022/02/24 09:16:17;;;;;;;9.13;1.50;;;;;;;;;;5065430;28;20109;-62
2022/02/24 09:18:43;;;;;;;5.47;1.38;;;;;;;;;;5070727;28;20148;-62
2022/02/24 09:21:10;;;;;;;13.10;1.30;;;;;;;;;;5066952;28;20117;-63
2022/02/24 09:23:38;;;;;;;7.38;1.17;;;;;;;;;;5071193;28;20052;-62
2022/02/24 09:26:04;;;;;;;8.07;1.45;;;;;;;;;;5063673;28;20141;-61
2022/02/24 09:28:31;;;;;;;6.68;1.30;;;;;;;;;;5069005;28;20105;-59
2022/02/24 09:30:59;;;;;;;8.82;1.40;;;;;;;;;;5065239;28;20052;-61
2022/02/24 09:33:26;;;;;;;11.10;1.65;;;;;;;;;;5061681;28;20150;-59
2022/02/24 09:35:53;;;;;;;7.28;1.40;;;;;;;;;;5068939;28;20061;-61
2022/02/24 09:38:20;;;;;;;7.57;1.25;;;;;;;;;;5064884;28;20056;-63
2022/02/24 09:40:51;;;;;;;6.50;1.15;;;;;;;;;;5071591;28;20053;-62
2022/02/24 09:43:18;;;;;;;8.43;1.63;;;;;;;;;;5064227;28;20059;-61
2022/02/24 09:45:46;;;;;;;11.10;1.33;;;;;;;;;;5069918;28;20048;-61
2022/02/24 09:48:18;;;;;;;7.37;1.90;;;;;;;;;;5053597;28;20115;-61
2022/02/24 09:50:48;;;;;;;9.18;1.35;;;;;;;;;;5086839;28;20788;-60
2022/02/24 09:53:15;;;;;;;6.82;1.52;;;;;;;;;;5062261;28;20048;-58
2022/02/24 09:55:41;;;;;;;11.38;1.58;;;;;;;;;;5068810;28;20482;-63
2022/02/24 09:58:08;;;;;;;9.00;1.90;;;;;;;;;;5063400;28;20117;-59
2022/02/24 10:00:34;;;;;;;15.13;1.60;;;;;;;;;;5071159;28;20056;-61
2022/02/24 10:03:01;;;;;;;11.30;1.50;;;;;;;;;;5063030;28;20135;-55
2022/02/24 10:05:29;;;;;;;8.25;1.40;;;;;;;;;;5068243;28;20147;-59
2022/02/24 10:08:09;;;;;;;7.28;1.15;;;;;;;;;;5062991;28;20722;-57
2022/02/24 10:10:36;;;;;;;6.72;1.38;;;;;;;;;;5066532;28;20059;-57
2022/02/24 10:13:07;;;;;;;13.73;1.92;;;;;;;;;;5065746;28;20049;-59
2022/02/24 10:15:35;;;;;;;6.18;1.00;;;;;;;;;;5068665;28;20052;-57
2022/02/24 10:18:09;;;;;;;7.72;1.73;;;;;;;;;;5062686;28;20053;-58
2022/02/24 10:20:37;;;;;;;11.55;2.03;;;;;;;;;;5069171;28;20516;-60
2022/02/24 10:23:03;;;;;;;9.43;1.10;;;;;;;;;;5065517;28;20052;-60
2022/02/24 10:25:37;;;;;;;11.65;1.35;;;;;;;;;;5069284;28;20052;-58
2022/02/24 10:28:05;;;;;;;8.50;1.30;;;;;;;;;;5068952;28;20056;-62
2022/02/24 10:30:31;;;;;;;11.65;1.45;;;;;;;;;;5064858;28;20044;-63
2022/02/24 10:33:00;;;;;;;8.77;1.20;;;;;;;;;;5069437;28;20068;-60
2022/02/24 10:35:28;;;;;;;5.15;1.10;;;;;;;;;;5061335;28;20064;-63
2022/02/24 10:37:59;;;;;;;8.38;1.35;;;;;;;;;;5065771;28;20079;-62
2022/02/24 10:40:26;;;;;;;7.70;1.33;;;;;;;;;;5063310;28;20076;-62
2022/02/24 10:42:53;;;;;;;8.73;1.27;;;;;;;;;;5070303;28;20052;-62
2022/02/24 10:45:21;;;;;;;6.28;1.10;;;;;;;;;;5062229;28;20045;-63
2022/02/24 10:47:58;;;;;;;9.60;2.38;;;;;;;;;;5067268;28;20092;-63
2022/02/24 10:50:39;;;;;;;10.70;1.15;;;;;;;;;;5062809;28;20136;-61
2022/02/24 10:53:07;;;;;;;14.25;1.70;;;;;;;;;;5068331;28;20072;-63
2022/02/24 10:55:33;;;;;;;14.13;1.70;;;;;;;;;;5063414;28;20087;-59
2022/02/24 10:58:04;;;;;;;5.35;1.40;;;;;;;;;;5070465;28;20320;-59
2022/02/24 11:00:31;;;;;;;8.70;1.60;;;;;;;;;;5061329;28;20058;-62
2022/02/24 11:02:58;;;;;;;5.75;0.98;;;;;;;;;;5066566;28;20063;-62
2022/02/24 11:05:26;;;;;;;7.60;1.50;;;;;;;;;;5063138;28;20088;-59
2022/02/24 11:07:53;;;;;;;11.18;1.55;;;;;;;;;;5069007;28;20408;-60
2022/02/24 11:10:21;;;;;;;7.53;1.40;;;;;;;;;;5062380;28;20060;-59
2022/02/24 11:12:47;;;;;;;8.90;1.55;;;;;;;;;;5067187;28;20060;-58
2022/02/24 11:15:14;;;;;;;10.15;1.65;;;;;;;;;;5061717;28;21327;-58
2022/02/24 11:17:41;;;;;;;4.97;1.20;;;;;;;;;;5068153;28;20078;-61
2022/02/24 11:20:08;;;;;;;8.52;1.38;;;;;;;;;;5064106;28;20076;-62
2022/02/24 11:22:35;;;;;;;10.93;1.30;;;;;;;;;;5067553;28;20048;-63
2022/02/24 11:25:02;;;;;;;8.82;1.45;;;;;;;;;;5068884;28;20064;-63
2022/02/24 11:27:35;;;;;;;14.32;1.50;;;;;;;;;;5062350;28;20052;-61
2022/02/24 11:30:04;;;;;;;5.07;1.35;;;;;;;;;;5064722;28;20097;-61
2022/02/24 11:32:31;;;;;;;9.82;1.30;;;;;;;;;;5062210;28;20055;-63
2022/02/24 11:35:06;;;;;;;7.60;1.13;;;;;;;;;;5068846;28;20052;-63
2022/02/24 11:37:33;;;;;;;13.90;1.67;;;;;;;;;;5060123;28;20047;-57
2022/02/24 11:40:02;;;;;;;8.23;1.20;;;;;;;;;;5069026;28;20063;-60
2022/02/24 11:42:31;;;;;;;6.72;1.33;;;;;;;;;;5062681;28;20059;-62
2022/02/24 11:44:57;;;;;;;;;;;;;;;;;;5068684;28;20056;-61
2022/02/24 11:47:23;;;;;;;6.20;1.20;;;;;;;;;;5058973;28;19929;-61
2022/02/24 11:50:07;;;;;;;17.13;1.40;;;;;;;;;;5068964;28;20501;-63
2022/02/24 11:52:44;;;;;;;8.02;1.65;;;;;;;;;;5078490;28;20142;-57
2022/02/24 11:55:39;;;;;;;13.85;1.23;;;;;;;;;;5068584;28;20054;-60
2022/02/24 11:58:20;;;;;;;6.57;1.15;;;;;;;;;;5077081;28;20048;-59
2022/02/24 12:01:03;;;;;;;5.57;1.33;;;;;;;;;;5084527;28;20091;-63
2022/02/24 12:03:44;;;;;;;13.32;1.13;;;;;;;;;;5060621;28;20149;-60
2022/02/24 12:06:13;;;;;;;5.45;1.70;;;;;;;;;;5065200;28;20181;-60
2022/02/24 12:08:55;;;;;;;3.75;1.13;;;;;;;;;;5045113;28;20102;-61
2022/02/24 12:11:29;;;;;;;3.90;1.02;;;;;;;;;;5066252;28;20401;-59
2022/02/24 12:13:58;;;;;;;7.60;1.58;;;;;;;;;;5061498;28;20040;-62
2022/02/24 12:16:25;;;;;;;9.65;1.80;;;;;;;;;;5067958;28;20314;-60
2022/02/24 12:18:53;;;;;;;6.60;1.30;;;;;;;;;;5062889;28;20063;-61
2022/02/24 12:21:31;;;;;;;6.82;1.08;;;;;;;;;;5069027;28;20127;-63
2022/02/24 12:23:59;;;;;;;3.78;0.80;;;;;;;;;;5062123;28;20122;-61
2022/02/24 12:26:37;;;;;;;6.85;1.00;;;;;;;;;;5070668;28;20048;-59
2022/02/24 12:29:20;;;;;;;4.13;0.73;;;;;;;;;;5065585;28;20076;-66
2022/02/24 12:31:47;;;;;;;3.38;1.02;;;;;;;;;;5066390;28;20053;-60
2022/02/24 12:34:14;;;;;;;6.40;0.93;;;;;;;;;;5060093;28;20057;-59
2022/02/24 12:36:42;;;;;;;7.43;0.95;;;;;;;;;;5067960;28;20067;-61
2022/02/24 12:39:08;;;;;;;6.18;0.90;;;;;;;;;;5059217;28;20053;-62
2022/02/24 12:41:35;;;;;;;5.20;0.70;;;;;;;;;;5066546;28;20071;-58
2022/02/24 12:44:02;;;;;;;5.35;0.80;;;;;;;;;;5061919;28;20048;-59
2022/02/24 12:46:29;;;;;;;10.10;1.05;;;;;;;;;;5065575;28;20083;-63
2022/02/24 12:48:56;;;;;;;5.43;0.80;;;;;;;;;;5062925;28;20449;-61
2022/02/24 12:51:24;;;;;;;5.80;1.15;;;;;;;;;;5071118;28;20068;-59
2022/02/24 12:53:51;;;;;;;4.70;1.17;;;;;;;;;;5069092;28;20098;-61
2022/02/24 12:56:19;;;;;;;4.23;0.97;;;;;;;;;;5065648;28;20079;-59
2022/02/24 12:58:46;;;;;;;4.72;0.95;;;;;;;;;;5071401;28;20395;-62
2022/02/24 13:01:13;;;;;;;4.82;0.90;;;;;;;;;;5066342;28;20055;-61
2022/02/24 13:03:40;;;;;;;4.93;1.02;;;;;;;;;;5069631;28;20079;-63
2022/02/24 13:06:07;;;;;;;4.60;1.00;;;;;;;;;;5065071;28;20527;-62
2022/02/24 13:11:19;;;;;;;2.72;0.70;;;;;;;;;;5065834;28;20057;-61
2022/02/24 13:13:48;;;;;;;4.18;0.90;;;;;;;;;;5071206;28;20176;-60
2022/02/24 13:16:16;;;;;;;5.40;0.82;;;;;;;;;;5066059;28;20425;-60
2022/02/24 13:18:44;;;;;;;6.55;2.33;;;;;;;;;;5071032;28;20056;-59
2022/02/24 13:21:12;;;;;;;5.93;1.98;;;;;;;;;;5065792;28;20072;-62
2022/02/24 13:23:39;;;;;;;3.47;1.00;;;;;;;;;;5071323;28;20075;-62
2022/02/24 13:26:06;;;;;;;6.30;1.20;;;;;;;;;;5066313;28;20060;-63
2022/02/24 13:28:35;;;;;;;4.78;1.05;;;;;;;;;;5070752;28;20053;-61
2022/02/24 13:31:03;;;;;;;6.15;1.27;;;;;;;;;;5064839;28;20075;-62
2022/02/24 13:33:30;;;;;;;4.97;1.05;;;;;;;;;;5069905;28;20049;-60
2022/02/24 13:35:56;;;;;;;5.78;1.00;;;;;;;;;;5063409;28;20044;-63
2022/02/24 13:38:31;;;;;;;3.30;1.20;;;;;;;;;;5069239;28;20292;-59
2022/02/24 13:40:59;;;;;;;7.55;0.90;;;;;;;;;;5064385;28;20052;-64
2022/02/24 13:43:26;;;;;;;1.70;0.60;;;;;;;;;;5070944;28;20082;-64
2022/02/24 13:45:54;;;;;;;4.80;0.93;;;;;;;;;;5070195;28;20503;-65
2022/02/24 13:48:24;;;;;;;4.90;0.70;;;;;;;;;;5065342;28;20419;-64
2022/02/24 13:50:51;;;;;;;2.33;0.70;;;;;;;;;;5071153;28;20059;-63
2022/02/24 13:53:21;;;;;;;3.45;0.52;;;;;;;;;;5064206;28;20056;-63
2022/02/24 13:55:52;;;;;;;3.92;0.40;;;;;;;;;;5072004;28;20076;-64
2022/02/24 13:58:23;;;;;;;1.50;0.52;;;;;;;;;;5064884;28;20079;-65
2022/02/24 14:00:55;;;;;;;7.65;0.50;;;;;;;;;;5044542;28;20068;-63
2022/02/24 14:03:28;;;;;;;3.50;0.45;;;;;;;;;;5063676;28;20557;-65
2022/02/24 14:06:00;;;;;;;2.28;0.50;;;;;;;;;;5068672;28;20076;-63
2022/02/24 14:08:27;;;;;;;1.83;0.30;;;;;;;;;;5062049;28;20056;-64
2022/02/24 14:11:02;;;;;;;1.42;0.30;;;;;;;;;;5069721;28;20052;-62
2022/02/24 14:13:29;;;;;;;1.95;0.40;;;;;;;;;;5065483;28;20048;-61
2022/02/24 14:15:57;;;;;;;1.27;0.52;;;;;;;;;;5069758;28;20498;-61
2022/02/24 14:18:23;;;;;;;1.77;0.22;;;;;;;;;;5063640;28;20048;-60
2022/02/24 14:20:51;;;;;;;0.38;0.20;;;;;;;;;;5068528;28;20064;-61
2022/02/24 14:23:17;;;;;;;0.40;0.15;;;;;;;;;;5063755;28;20052;-61
2022/02/24 14:25:44;;;;;;;1.55;0.30;;;;;;;;;;5069889;28;20061;-59
2022/02/24 14:28:11;;;;;;;1.52;0.17;;;;;;;;;;5063604;28;20155;-63
2022/02/24 14:30:37;;;;;;;1.10;0.40;;;;;;;;;;5069908;28;20110;-58
2022/02/24 14:33:05;;;;;;;2.00;0.30;;;;;;;;;;5063925;28;20143;-64
2022/02/24 14:35:31;;;;;;;2.60;0.40;;;;;;;;;;5067862;28;20242;-63
2022/02/24 14:37:58;;;;;;;0.32;0.20;;;;;;;;;;5062975;28;20360;-58
2022/02/24 14:40:24;;;;;;;0.65;0.10;;;;;;;;;;5066897;28;20044;-61
2022/02/24 14:42:51;;;;;;;2.22;0.28;;;;;;;;;;5070330;28;20052;-65
2022/02/24 14:45:17;;;;;;;0.32;0.13;;;;;;;;;;5061074;28;20052;-61
2022/02/24 14:47:44;;;;;;;0.13;0.13;;;;;;;;;;5065686;28;20144;-60
2022/02/24 14:50:12;;;;;;;0.10;0.10;;;;;;;;;;5061499;28;20048;-59